createdAt,value
2024-02-23T00:01:40.025Z,8.40
2024-02-23T00:04:08.919Z,8.30
2024-02-23T00:06:37.101Z,8.20
2024-02-23T00:09:08.694Z,8.40
2024-02-23T00:11:41.007Z,8.10
2024-02-23T00:14:12.663Z,8.10
2024-02-23T00:16:42.906Z,7.90
2024-02-23T00:19:11.637Z,8.10
2024-02-23T00:21:39.887Z,8.20
2024-02-23T00:24:08.858Z,8.10
2024-02-23T00:26:36.903Z,8.00
2024-02-23T00:29:05.363Z,8.00
2024-02-23T00:31:33.512Z,8.10
2024-02-23T00:34:03.088Z,7.80
2024-02-23T00:36:31.436Z,7.70
2024-02-23T00:38:59.481Z,7.70
2024-02-23T00:41:27.598Z,7.90
2024-02-23T00:43:55.891Z,8.10
2024-02-23T00:46:24.087Z,7.80
2024-02-23T00:48:59.474Z,7.50
2024-02-23T00:51:29.008Z,7.50
2024-02-23T00:53:57.305Z,7.70
2024-02-23T00:56:35.791Z,7.40
2024-02-23T00:59:09.195Z,7.70
2024-02-23T01:01:37.374Z,7.40
2024-02-23T01:04:05.830Z,7.50
2024-02-23T01:06:35.274Z,7.40
2024-02-23T01:09:05.583Z,7.50
2024-02-23T01:11:33.977Z,7.40
2024-02-23T01:14:02.116Z,7.40
2024-02-23T01:16:33.741Z,7.40
2024-02-23T01:19:01.913Z,7.40
2024-02-23T01:21:31.239Z,7.80
2024-02-23T01:24:01.972Z,7.40
2024-02-23T01:26:30.293Z,7.60
2024-02-23T01:28:58.309Z,7.40
2024-02-23T01:31:26.331Z,7.40
2024-02-23T01:33:54.560Z,7.40
2024-02-23T01:36:22.877Z,7.50
2024-02-23T01:38:51.027Z,7.40
2024-02-23T01:41:20.478Z,7.40
2024-02-23T01:43:48.621Z,8.30
2024-02-23T01:46:19.890Z,7.30
2024-02-23T01:48:48.145Z,7.40
2024-02-23T01:51:16.807Z,8.10
2024-02-23T01:53:45.924Z,7.40
2024-02-23T01:56:19.977Z,7.60
2024-02-23T01:58:50.286Z,7.40
2024-02-23T02:01:18.357Z,7.80
2024-02-23T02:03:46.508Z,7.30
2024-02-23T02:06:15.004Z,8.10
2024-02-23T02:08:43.420Z,7.40
2024-02-23T02:11:11.798Z,7.70
2024-02-23T02:13:39.934Z,8.10
2024-02-23T02:16:09.479Z,7.40
2024-02-23T02:18:37.465Z,8.60
2024-02-23T02:21:06.192Z,7.40
2024-02-23T02:23:34.917Z,7.50
2024-02-23T02:26:03.063Z,7.70
2024-02-23T02:28:31.596Z,7.50
2024-02-23T02:30:59.618Z,7.90
2024-02-23T02:33:29.261Z,8.20
2024-02-23T02:35:57.452Z,7.50
2024-02-23T02:38:25.565Z,7.80
2024-02-23T02:40:53.722Z,7.60
2024-02-23T02:43:21.772Z,7.50
2024-02-23T02:45:50.403Z,7.60
2024-02-23T02:48:18.376Z,7.50
2024-02-23T02:50:48.411Z,7.40
2024-02-23T02:53:17.295Z,7.40
2024-02-23T02:55:45.970Z,7.50
2024-02-23T02:58:14.807Z,7.50
2024-02-23T03:00:42.980Z,7.40
2024-02-23T03:03:11.475Z,7.40
2024-02-23T03:05:39.761Z,7.40
2024-02-23T03:08:09.717Z,7.30
2024-02-23T03:10:37.695Z,7.30
2024-02-23T03:13:06.025Z,7.30
2024-02-23T03:15:34.694Z,7.30
2024-02-23T03:18:03.674Z,7.30
2024-02-23T03:20:31.875Z,7.20
2024-02-23T03:23:00.030Z,7.50
2024-02-23T03:25:29.712Z,7.20
2024-02-23T03:27:57.696Z,7.30
2024-02-23T03:30:25.903Z,7.20
2024-02-23T03:32:54.033Z,7.10
2024-02-23T03:35:22.153Z,7.10
2024-02-23T03:37:50.199Z,7.00
2024-02-23T03:40:19.182Z,7.00
2024-02-23T03:42:48.930Z,6.90
2024-02-23T03:45:17.327Z,7.20
2024-02-23T03:47:45.398Z,6.90
2024-02-23T03:50:13.662Z,6.90
2024-02-23T03:52:41.723Z,6.90
2024-02-23T03:55:10.297Z,7.10
2024-02-23T03:57:38.318Z,6.90
2024-02-23T04:00:09.861Z,6.80
2024-02-23T04:02:38.657Z,6.80
2024-02-23T04:05:07.679Z,6.90
2024-02-23T04:07:35.939Z,6.80
2024-02-23T04:10:05.627Z,6.80
2024-02-23T04:12:33.946Z,6.70
2024-02-23T04:15:02.080Z,7.00
2024-02-23T04:17:31.910Z,6.70
2024-02-23T04:20:01.478Z,6.90
2024-02-23T04:22:29.743Z,6.90
2024-02-23T04:24:56.817Z,6.70
2024-02-23T04:27:24.829Z,6.70
2024-02-23T04:29:52.928Z,6.70
2024-02-23T04:32:20.969Z,7.00
2024-02-23T04:34:50.485Z,6.60
2024-02-23T04:37:18.543Z,7.10
2024-02-23T04:39:46.755Z,6.90
2024-02-23T04:42:14.751Z,7.00
2024-02-23T04:44:44.065Z,6.80
2024-02-23T04:47:12.109Z,7.10
2024-02-23T04:49:40.306Z,6.80
2024-02-23T04:52:10.510Z,6.80
2024-02-23T04:54:38.653Z,6.80
2024-02-23T04:57:06.750Z,6.80
2024-02-23T04:59:35.230Z,7.30
2024-02-23T05:02:03.409Z,6.80
2024-02-23T05:04:31.638Z,7.00
2024-02-23T05:06:59.807Z,6.90
2024-02-23T05:09:29.268Z,6.90
2024-02-23T05:11:57.406Z,7.40
2024-02-23T05:14:25.939Z,7.00
2024-02-23T05:16:54.262Z,7.20
2024-02-23T05:19:22.530Z,7.30
2024-02-23T05:21:50.670Z,7.20
2024-02-23T05:24:18.766Z,7.50
2024-02-23T05:26:49.144Z,7.00
2024-02-23T05:29:20.611Z,7.30
2024-02-23T05:31:50.869Z,7.10
2024-02-23T05:34:19.665Z,7.40
2024-02-23T05:36:48.408Z,7.10
2024-02-23T05:39:18.456Z,7.10
2024-02-23T05:41:48.510Z,7.10
2024-02-23T05:44:16.601Z,7.00
2024-02-23T05:46:45.407Z,7.10
2024-02-23T05:49:14.509Z,7.50
2024-02-23T05:51:42.633Z,7.60
2024-02-23T05:54:10.722Z,7.40
2024-02-23T05:56:38.983Z,7.10
2024-02-23T05:59:08.792Z,7.10
2024-02-23T06:01:37.094Z,7.30
2024-02-23T06:04:06.637Z,8.20
2024-02-23T06:06:34.989Z,7.10
2024-02-23T06:09:03.906Z,7.10
2024-02-23T06:11:32.162Z,7.90
2024-02-23T06:14:00.274Z,7.50
2024-02-23T06:16:29.888Z,7.10
2024-02-23T06:18:58.170Z,7.50
2024-02-23T06:21:26.234Z,7.10
2024-02-23T06:23:54.533Z,7.30
2024-02-23T06:26:22.642Z,7.40
2024-02-23T06:28:51.056Z,7.50
2024-02-23T06:31:19.182Z,7.10
2024-02-23T06:33:50.719Z,7.00
2024-02-23T06:36:19.312Z,7.70
2024-02-23T06:38:47.561Z,7.10
2024-02-23T06:41:15.832Z,7.10
2024-02-23T06:43:43.893Z,7.00
2024-02-23T06:46:12.368Z,7.00
2024-02-23T06:48:41.153Z,7.10
2024-02-23T06:51:11.543Z,7.10
2024-02-23T06:53:40.269Z,7.00
2024-02-23T06:56:08.949Z,7.20
2024-02-23T06:58:38.502Z,7.10
2024-02-23T07:01:08.113Z,7.10
2024-02-23T07:03:38.105Z,8.30
2024-02-23T07:06:06.885Z,7.30
2024-02-23T07:08:36.410Z,7.10
2024-02-23T07:11:05.062Z,7.40
2024-02-23T07:13:33.715Z,7.10
2024-02-23T07:16:03.281Z,7.50
2024-02-23T07:18:31.483Z,7.00
2024-02-23T07:20:59.580Z,7.00
2024-02-23T07:23:27.815Z,7.00
2024-02-23T07:25:57.404Z,7.00
2024-02-23T07:28:25.641Z,7.00
2024-02-23T07:30:54.108Z,7.00
2024-02-23T07:33:22.497Z,7.00
2024-02-23T07:35:50.608Z,6.90
2024-02-23T07:38:19.436Z,7.10
2024-02-23T07:40:47.659Z,7.20
2024-02-23T07:43:17.223Z,7.10
2024-02-23T07:45:45.561Z,6.80
2024-02-23T07:48:13.687Z,6.70
2024-02-23T07:50:41.916Z,6.70
2024-02-23T07:53:10.049Z,6.60
2024-02-23T07:55:38.150Z,6.60
2024-02-23T07:58:06.686Z,6.90
2024-02-23T08:00:39.335Z,6.60
2024-02-23T08:03:09.716Z,6.90
2024-02-23T08:05:37.973Z,6.60
2024-02-23T08:08:08.129Z,7.00
2024-02-23T08:10:36.258Z,6.70
2024-02-23T08:13:04.266Z,6.70
2024-02-23T08:15:32.308Z,6.70
2024-02-23T08:18:01.881Z,6.80
2024-02-23T08:20:30.080Z,7.00
2024-02-23T08:22:58.351Z,7.00
2024-02-23T08:25:29.694Z,6.80
2024-02-23T08:27:58.033Z,6.80
2024-02-23T08:30:27.754Z,7.60
2024-02-23T08:32:57.651Z,7.00
2024-02-23T08:35:27.292Z,6.80
2024-02-23T08:37:56.139Z,7.00
2024-02-23T08:40:24.319Z,7.00
2024-02-23T08:42:53.168Z,7.60
2024-02-23T08:45:21.365Z,6.80
2024-02-23T08:47:49.541Z,6.80
2024-02-23T08:50:17.746Z,6.90
2024-02-23T08:52:47.562Z,6.80
2024-02-23T08:55:15.649Z,6.80
2024-02-23T08:57:43.712Z,6.90
2024-02-23T09:00:16.262Z,6.80
2024-02-23T09:02:46.327Z,7.00
2024-02-23T09:05:14.668Z,7.00
2024-02-23T09:07:43.090Z,7.00
2024-02-23T09:10:14.049Z,7.00
2024-02-23T09:12:42.158Z,7.10
2024-02-23T09:15:10.960Z,7.50
2024-02-23T09:17:39.233Z,7.20
2024-02-23T09:20:08.538Z,7.60
2024-02-23T09:22:37.495Z,7.30
2024-02-23T09:25:07.114Z,7.30
2024-02-23T09:27:37.629Z,7.30
2024-02-23T09:30:07.526Z,7.40
2024-02-23T09:32:35.722Z,7.50
2024-02-23T09:35:04.628Z,7.50
2024-02-23T09:37:33.230Z,7.40
2024-02-23T09:40:02.033Z,7.50
2024-02-23T09:42:33.403Z,7.60
2024-02-23T09:45:03.572Z,7.80
2024-02-23T09:47:33.595Z,7.70
2024-02-23T09:50:06.169Z,7.70
2024-02-23T09:52:34.905Z,8.00
2024-02-23T09:55:05.132Z,7.70
2024-02-23T09:57:33.334Z,7.90
2024-02-23T10:00:07.642Z,7.90
2024-02-23T10:02:37.525Z,8.00
2024-02-23T10:05:09.523Z,8.10
2024-02-23T10:07:37.724Z,8.10
2024-02-23T10:10:09.353Z,8.20
2024-02-23T10:12:38.023Z,8.20
2024-02-23T10:15:09.234Z,8.30
2024-02-23T10:17:37.655Z,8.30
2024-02-23T10:20:06.771Z,8.50
2024-02-23T10:22:36.423Z,8.50
2024-02-23T10:25:04.774Z,8.50
2024-02-23T10:27:32.903Z,8.60
2024-02-23T10:30:01.089Z,8.90
2024-02-23T10:32:32.343Z,8.40
2024-02-23T10:35:05.491Z,8.80
2024-02-23T10:37:35.540Z,9.40
2024-02-23T10:40:10.359Z,9.00
2024-02-23T10:42:40.693Z,8.90
2024-02-23T10:45:09.588Z,9.00
2024-02-23T10:47:40.078Z,8.60
2024-02-23T10:50:09.689Z,9.10
2024-02-23T10:52:38.130Z,8.80
2024-02-23T10:55:08.727Z,9.10
2024-02-23T10:57:37.651Z,8.90
2024-02-23T11:00:07.650Z,9.10
2024-02-23T11:02:41.183Z,9.00
2024-02-23T11:05:13.629Z,9.00
2024-02-23T11:07:41.947Z,9.00
2024-02-23T11:10:11.088Z,8.90
2024-02-23T11:12:39.234Z,8.90
2024-02-23T11:15:08.135Z,9.10
2024-02-23T11:17:40.654Z,8.90
2024-02-23T11:20:10.105Z,9.40
2024-02-23T11:22:39.961Z,8.90
2024-02-23T11:25:11.134Z,8.90
2024-02-23T11:27:41.654Z,9.00
2024-02-23T11:30:11.498Z,9.00
2024-02-23T11:32:43.174Z,9.00
2024-02-23T11:35:13.729Z,9.10
2024-02-23T11:37:49.956Z,9.10
2024-02-23T11:40:20.536Z,9.10
2024-02-23T11:42:50.070Z,9.10
2024-02-23T11:45:18.312Z,9.20
2024-02-23T11:47:48.085Z,9.30
2024-02-23T11:50:16.976Z,9.30
2024-02-23T11:52:45.245Z,9.40
2024-02-23T11:55:14.445Z,9.70
2024-02-23T11:57:47.742Z,9.60
2024-02-23T12:00:17.633Z,9.50
2024-02-23T12:02:50.047Z,9.50
2024-02-23T12:05:18.736Z,9.40
2024-02-23T12:07:48.020Z,9.40
2024-02-23T12:10:16.665Z,9.40
2024-02-23T12:12:44.826Z,9.50
2024-02-23T12:15:13.554Z,9.50
2024-02-23T12:17:50.884Z,9.50
2024-02-23T12:20:19.547Z,9.80
2024-02-23T12:22:49.181Z,9.70
2024-02-23T12:25:17.363Z,9.70
2024-02-23T12:27:45.677Z,10.00
2024-02-23T12:30:17.469Z,10.00
2024-02-23T12:32:45.902Z,9.90
2024-02-23T12:35:17.484Z,10.00
2024-02-23T12:37:46.893Z,10.00
2024-02-23T12:40:15.470Z,10.10
2024-02-23T12:42:43.883Z,10.10
2024-02-23T12:45:12.246Z,10.10
2024-02-23T12:47:41.486Z,10.20
2024-02-23T12:50:11.290Z,10.50
2024-02-23T12:52:41.076Z,10.10
2024-02-23T12:55:09.834Z,10.20
2024-02-23T12:57:37.957Z,10.10
2024-02-23T13:00:07.467Z,10.10
2024-02-23T13:02:35.569Z,10.20
2024-02-23T13:05:03.998Z,10.50
2024-02-23T13:07:32.254Z,10.50
2024-02-23T13:10:01.749Z,10.40
2024-02-23T13:12:29.898Z,11.20
2024-02-23T13:14:58.008Z,10.40
2024-02-23T13:17:26.719Z,10.40
2024-02-23T13:20:05.478Z,10.10
2024-02-23T13:22:39.284Z,10.10
2024-02-23T13:25:09.307Z,10.20
2024-02-23T13:27:37.549Z,9.90
2024-02-23T13:30:07.228Z,9.90
2024-02-23T13:32:35.400Z,9.90
2024-02-23T13:35:05.647Z,9.90
2024-02-23T13:37:36.920Z,9.90
2024-02-23T13:40:09.255Z,10.00
2024-02-23T13:42:40.264Z,10.00
2024-02-23T13:45:14.885Z,10.00
2024-02-23T13:47:59.493Z,9.90
2024-02-23T13:50:28.469Z,10.20
2024-02-23T13:52:56.930Z,10.00
2024-02-23T13:55:25.291Z,10.00
2024-02-23T13:57:54.600Z,10.10
2024-02-23T14:00:22.867Z,10.10
2024-02-23T14:02:51.215Z,10.00
2024-02-23T14:05:20.317Z,9.90
2024-02-23T14:07:48.644Z,9.90
2024-02-23T14:10:16.919Z,10.00
2024-02-23T14:12:45.284Z,9.90
2024-02-23T14:15:14.764Z,10.10
2024-02-23T14:17:42.894Z,10.10
2024-02-23T14:20:12.167Z,9.80
2024-02-23T14:22:40.397Z,9.70
2024-02-23T14:25:09.180Z,9.70
2024-02-23T14:27:37.395Z,9.70
2024-02-23T14:30:06.207Z,10.00
2024-02-23T14:32:36.327Z,9.70
2024-02-23T14:35:05.275Z,9.90
2024-02-23T14:37:35.620Z,9.90
2024-02-23T14:40:03.862Z,9.70
2024-02-23T14:42:32.040Z,10.00
2024-02-23T14:45:00.033Z,9.80
2024-02-23T14:47:32.597Z,9.90
2024-02-23T14:50:10.034Z,9.50
2024-02-23T14:52:38.547Z,9.70
2024-02-23T14:55:07.056Z,9.70
2024-02-23T14:57:35.251Z,9.70
2024-02-23T15:00:04.384Z,9.70
2024-02-23T15:02:32.708Z,9.70
2024-02-23T15:05:01.126Z,9.80
2024-02-23T15:07:30.740Z,9.80
2024-02-23T15:09:58.943Z,9.80
2024-02-23T15:12:29.216Z,10.00
2024-02-23T15:14:57.312Z,9.90
2024-02-23T15:17:25.291Z,10.10
2024-02-23T15:19:53.374Z,9.80
2024-02-23T15:22:22.020Z,9.80
2024-02-23T15:24:51.563Z,9.80
2024-02-23T15:27:20.481Z,9.90
2024-02-23T15:29:48.691Z,9.80
2024-02-23T15:32:17.279Z,9.90
2024-02-23T15:34:45.752Z,10.00
2024-02-23T15:37:13.861Z,9.90
2024-02-23T15:39:42.037Z,9.90
2024-02-23T15:42:11.519Z,10.10
2024-02-23T15:44:39.639Z,10.20
2024-02-23T15:47:08.201Z,10.00
2024-02-23T15:49:54.624Z,10.00
2024-02-23T15:52:28.864Z,10.00
2024-02-23T15:54:57.061Z,10.00
2024-02-23T15:57:27.029Z,10.00
2024-02-23T16:00:03.133Z,10.00
2024-02-23T16:02:32.845Z,10.00
2024-02-23T16:05:01.209Z,9.90
2024-02-23T16:07:29.590Z,9.90
2024-02-23T16:09:57.871Z,9.90
2024-02-23T16:12:27.517Z,9.80
2024-02-23T16:14:57.432Z,9.80
2024-02-23T16:17:25.857Z,9.70
2024-02-23T16:19:54.365Z,9.70
2024-02-23T16:22:24.412Z,9.70
2024-02-23T16:24:52.533Z,9.90
2024-02-23T16:27:20.577Z,9.80
2024-02-23T16:29:50.682Z,9.70
2024-02-23T16:32:21.925Z,9.40
2024-02-23T16:34:50.047Z,9.40
2024-02-23T16:37:18.101Z,9.40
2024-02-23T16:39:46.214Z,9.30
2024-02-23T16:42:14.196Z,9.30
2024-02-23T16:44:42.384Z,9.20
2024-02-23T16:47:12.104Z,9.20
2024-02-23T16:49:40.294Z,9.50
2024-02-23T16:52:08.793Z,9.20
2024-02-23T16:54:36.963Z,9.20
2024-02-23T16:57:05.175Z,9.30
2024-02-23T16:59:33.156Z,9.10
2024-02-23T17:02:01.264Z,9.20
2024-02-23T17:04:30.621Z,8.90
2024-02-23T17:06:59.047Z,8.90
2024-02-23T17:09:27.179Z,8.90
2024-02-23T17:11:55.325Z,8.80
2024-02-23T17:14:23.718Z,8.80
2024-02-23T17:16:52.278Z,8.80
2024-02-23T17:19:21.160Z,8.70
2024-02-23T17:21:50.841Z,8.70
2024-02-23T17:24:18.937Z,8.70
2024-02-23T17:26:47.050Z,8.60
2024-02-23T17:29:15.576Z,8.60
2024-02-23T17:31:44.125Z,8.60
2024-02-23T17:34:17.371Z,8.60
2024-02-23T17:36:47.105Z,8.50
2024-02-23T17:39:17.660Z,8.80
2024-02-23T17:41:46.008Z,8.60
2024-02-23T17:44:14.141Z,8.60
2024-02-23T17:46:43.466Z,8.50
2024-02-23T17:49:11.907Z,8.50
2024-02-23T17:51:39.943Z,8.40
2024-02-23T17:54:08.077Z,8.60
2024-02-23T17:56:39.507Z,8.40
2024-02-23T17:59:08.088Z,8.40
2024-02-23T18:01:36.212Z,8.30
2024-02-23T18:04:04.342Z,8.30
2024-02-23T18:06:32.486Z,8.30
2024-02-23T18:09:00.730Z,8.20
2024-02-23T18:11:39.262Z,8.30
2024-02-23T18:14:08.996Z,8.10
2024-02-23T18:16:39.978Z,8.50
2024-02-23T18:19:08.358Z,8.30
2024-02-23T18:21:36.443Z,8.20
2024-02-23T18:24:05.526Z,8.00
2024-02-23T18:26:33.681Z,8.00
2024-02-23T18:29:01.929Z,8.00
2024-02-23T18:31:32.322Z,8.00
2024-02-23T18:34:01.705Z,8.60
2024-02-23T18:36:29.976Z,8.00
2024-02-23T18:38:58.108Z,7.90
2024-02-23T18:41:26.193Z,8.00
2024-02-23T18:43:54.554Z,8.30
2024-02-23T18:46:22.548Z,8.10
2024-02-23T18:48:52.049Z,8.10
2024-02-23T18:51:20.952Z,8.30
2024-02-23T18:53:51.194Z,8.20
2024-02-23T18:56:19.369Z,7.90
2024-02-23T18:58:47.316Z,8.00
2024-02-23T19:01:15.448Z,8.00
2024-02-23T19:03:43.662Z,8.30
2024-02-23T19:06:13.230Z,8.30
2024-02-23T19:08:41.789Z,8.00
2024-02-23T19:11:09.988Z,8.00
2024-02-23T19:13:38.434Z,8.60
2024-02-23T19:16:13.164Z,8.00
2024-02-23T19:18:41.277Z,7.90
2024-02-23T19:21:09.623Z,8.70
2024-02-23T19:23:39.297Z,8.20
2024-02-23T19:26:08.922Z,8.90
2024-02-23T19:28:37.183Z,8.00
2024-02-23T19:31:06.042Z,8.40
2024-02-23T19:33:34.614Z,7.90
2024-02-23T19:36:03.292Z,8.00
2024-02-23T19:38:31.539Z,8.70
2024-02-23T19:41:01.859Z,7.80
2024-02-23T19:43:30.504Z,7.90
2024-02-23T19:46:07.396Z,7.80
2024-02-23T19:48:41.448Z,8.70
2024-02-23T19:51:09.528Z,7.70
2024-02-23T19:53:37.970Z,8.60
2024-02-23T19:56:08.464Z,7.70
2024-02-23T19:58:36.804Z,8.30
2024-02-23T20:01:05.144Z,7.80
2024-02-23T20:03:33.662Z,7.80
2024-02-23T20:06:01.881Z,7.50
2024-02-23T20:08:30.036Z,7.80
2024-02-23T20:11:01.261Z,7.80
2024-02-23T20:13:31.972Z,7.90
2024-02-23T20:16:00.131Z,8.50
2024-02-23T20:18:29.223Z,8.20
2024-02-23T20:20:57.372Z,7.80
2024-02-23T20:23:25.547Z,7.80
2024-02-23T20:25:53.615Z,7.80
2024-02-23T20:28:22.024Z,8.00
2024-02-23T20:30:53.487Z,7.80
2024-02-23T20:33:21.897Z,8.50
2024-02-23T20:35:50.108Z,7.70
2024-02-23T20:38:18.247Z,7.70
2024-02-23T20:40:47.855Z,7.70
2024-02-23T20:43:16.594Z,7.80
2024-02-23T20:45:44.854Z,8.70
2024-02-23T20:48:14.757Z,7.90
2024-02-23T20:50:42.969Z,7.70
2024-02-23T20:53:13.694Z,7.60
2024-02-23T20:55:41.820Z,7.60
2024-02-23T20:58:10.151Z,7.90
2024-02-23T21:00:41.014Z,7.60
2024-02-23T21:03:09.283Z,7.90
2024-02-23T21:05:39.228Z,7.60
2024-02-23T21:08:07.846Z,7.80
2024-02-23T21:10:35.933Z,7.60
2024-02-23T21:13:07.094Z,8.70
2024-02-23T21:15:35.407Z,7.50
2024-02-23T21:18:03.776Z,7.70
2024-02-23T21:20:33.111Z,8.00
2024-02-23T21:23:04.281Z,7.80
2024-02-23T21:25:36.783Z,7.60
2024-02-23T21:28:07.395Z,7.50
2024-02-23T21:30:36.858Z,7.30
2024-02-23T21:33:07.147Z,7.50
2024-02-23T21:35:38.003Z,7.50
2024-02-23T21:38:09.664Z,7.50
2024-02-23T21:40:39.669Z,7.50
2024-02-23T21:43:08.640Z,7.50
2024-02-23T21:45:37.767Z,7.80
2024-02-23T21:48:07.480Z,7.70
2024-02-23T21:50:38.005Z,7.50
2024-02-23T21:53:08.540Z,7.50
2024-02-23T21:55:39.549Z,7.60
2024-02-23T21:58:07.797Z,7.70
2024-02-23T22:00:36.476Z,7.50
2024-02-23T22:03:06.880Z,7.50
2024-02-23T22:05:35.267Z,7.50
2024-02-23T22:08:07.284Z,7.50
2024-02-23T22:10:37.880Z,7.50
2024-02-23T22:13:06.630Z,8.10
2024-02-23T22:15:36.456Z,7.50
2024-02-23T22:18:06.182Z,7.50
2024-02-23T22:20:35.666Z,7.50
2024-02-23T22:23:05.575Z,7.50
2024-02-23T22:25:37.459Z,7.40
2024-02-23T22:28:10.077Z,7.40
2024-02-23T22:30:38.801Z,7.40
2024-02-23T22:33:11.402Z,7.40
2024-02-23T22:35:42.190Z,7.70
2024-02-23T22:38:10.542Z,7.40
2024-02-23T22:40:40.987Z,7.40
2024-02-23T22:43:11.027Z,7.30
2024-02-23T22:45:39.990Z,7.30
2024-02-23T22:48:10.220Z,7.30
2024-02-23T22:50:38.570Z,7.30
2024-02-23T22:53:09.058Z,7.20
2024-02-23T22:55:37.527Z,7.20
2024-02-23T22:58:06.332Z,7.00
2024-02-23T23:00:39.254Z,7.20
2024-02-23T23:03:08.071Z,7.40
2024-02-23T23:05:36.947Z,7.20
2024-02-23T23:08:06.530Z,8.40
2024-02-23T23:10:34.932Z,7.10
2024-02-23T23:13:04.073Z,7.40
2024-02-23T23:15:33.517Z,7.00
2024-02-23T23:18:04.561Z,7.30
2024-02-23T23:20:33.260Z,7.00
2024-02-23T23:23:02.096Z,7.20
2024-02-23T23:25:30.375Z,7.40
2024-02-23T23:27:59.070Z,7.00
2024-02-23T23:30:26.618Z,7.30
2024-02-23T23:32:55.536Z,6.90
2024-02-23T23:35:29.937Z,7.30
2024-02-23T23:37:58.849Z,6.90
2024-02-23T23:40:27.418Z,7.10
2024-02-23T23:42:56.988Z,6.80
2024-02-23T23:45:28.046Z,7.00
2024-02-23T23:47:56.640Z,6.80
2024-02-23T23:50:27.296Z,6.70
2024-02-23T23:52:55.848Z,6.80
2024-02-23T23:55:24.143Z,6.70
2024-02-23T23:57:52.400Z,6.70
